sensor_id;sensor_type;location;lat;lon;timestamp;P1;durP1;ratioP1;P2;durP2;ratioP2
68866;SDS011;56451;44.804;20.476;2023-02-15T00:02:25;40.53;;;21.85;;
68866;SDS011;56451;44.804;20.476;2023-02-15T00:04:51;42.50;;;22.47;;
68866;SDS011;56451;44.804;20.476;2023-02-15T00:07:18;44.28;;;22.35;;
68866;SDS011;56451;44.804;20.476;2023-02-15T00:09:45;47.90;;;23.52;;
68866;SDS011;56451;44.804;20.476;2023-02-15T00:12:11;43.28;;;22.42;;
68866;SDS011;56451;44.804;20.476;2023-02-15T00:14:37;45.77;;;23.37;;
68866;SDS011;56451;44.804;20.476;2023-02-15T00:17:03;44.17;;;22.88;;
68866;SDS011;56451;44.804;20.476;2023-02-15T00:19:29;48.55;;;23.98;;
68866;SDS011;56451;44.804;20.476;2023-02-15T00:21:58;49.47;;;24.42;;
68866;SDS011;56451;44.804;20.476;2023-02-15T00:24:34;46.38;;;23.40;;
68866;SDS011;56451;44.804;20.476;2023-02-15T00:27:00;40.97;;;22.70;;
68866;SDS011;56451;44.804;20.476;2023-02-15T00:29:26;48.67;;;22.92;;
68866;SDS011;56451;44.804;20.476;2023-02-15T00:31:52;49.67;;;23.77;;
68866;SDS011;56451;44.804;20.476;2023-02-15T00:34:20;46.55;;;23.50;;
68866;SDS011;56451;44.804;20.476;2023-02-15T00:36:47;45.80;;;23.80;;
68866;SDS011;56451;44.804;20.476;2023-02-15T00:39:14;43.10;;;22.70;;
68866;SDS011;56451;44.804;20.476;2023-02-15T00:41:41;45.45;;;22.17;;
68866;SDS011;56451;44.804;20.476;2023-02-15T00:44:08;44.60;;;22.30;;
68866;SDS011;56451;44.804;20.476;2023-02-15T00:46:34;46.55;;;23.05;;
68866;SDS011;56451;44.804;20.476;2023-02-15T00:49:00;44.17;;;22.63;;
68866;SDS011;56451;44.804;20.476;2023-02-15T00:51:26;45.63;;;22.80;;
68866;SDS011;56451;44.804;20.476;2023-02-15T00:53:52;41.03;;;22.23;;
68866;SDS011;56451;44.804;20.476;2023-02-15T00:56:18;42.92;;;22.20;;
68866;SDS011;56451;44.804;20.476;2023-02-15T00:58:45;42.80;;;21.35;;
68866;SDS011;56451;44.804;20.476;2023-02-15T01:01:15;43.37;;;21.67;;
68866;SDS011;56451;44.804;20.476;2023-02-15T01:03:43;44.60;;;21.80;;
68866;SDS011;56451;44.804;20.476;2023-02-15T01:06:11;40.80;;;20.92;;
68866;SDS011;56451;44.804;20.476;2023-02-15T01:08:38;45.60;;;21.20;;
68866;SDS011;56451;44.804;20.476;2023-02-15T01:11:08;39.42;;;20.85;;
68866;SDS011;56451;44.804;20.476;2023-02-15T01:13:48;41.13;;;21.03;;
68866;SDS011;56451;44.804;20.476;2023-02-15T01:16:18;40.58;;;20.25;;
68866;SDS011;56451;44.804;20.476;2023-02-15T01:18:44;41.72;;;21.52;;
68866;SDS011;56451;44.804;20.476;2023-02-15T01:21:12;42.80;;;22.00;;
68866;SDS011;56451;44.804;20.476;2023-02-15T01:23:43;39.90;;;21.23;;
68866;SDS011;56451;44.804;20.476;2023-02-15T01:26:09;43.53;;;22.02;;
68866;SDS011;56451;44.804;20.476;2023-02-15T01:28:36;39.97;;;21.13;;
68866;SDS011;56451;44.804;20.476;2023-02-15T01:31:09;42.70;;;21.23;;
68866;SDS011;56451;44.804;20.476;2023-02-15T01:33:37;39.25;;;20.52;;
68866;SDS011;56451;44.804;20.476;2023-02-15T01:36:04;40.70;;;19.63;;
68866;SDS011;56451;44.804;20.476;2023-02-15T01:38:31;40.42;;;21.40;;
68866;SDS011;56451;44.804;20.476;2023-02-15T01:40:57;39.20;;;20.45;;
68866;SDS011;56451;44.804;20.476;2023-02-15T01:43:45;38.17;;;19.95;;
68866;SDS011;56451;44.804;20.476;2023-02-15T01:49:00;42.73;;;19.70;;
68866;SDS011;56451;44.804;20.476;2023-02-15T01:51:30;40.53;;;19.92;;
68866;SDS011;56451;44.804;20.476;2023-02-15T01:54:09;39.35;;;19.92;;
68866;SDS011;56451;44.804;20.476;2023-02-15T01:56:43;38.03;;;20.73;;
68866;SDS011;56451;44.804;20.476;2023-02-15T01:59:10;42.07;;;20.03;;
68866;SDS011;56451;44.804;20.476;2023-02-15T02:01:40;37.92;;;19.35;;
68866;SDS011;56451;44.804;20.476;2023-02-15T02:06:46;37.78;;;18.48;;
68866;SDS011;56451;44.804;20.476;2023-02-15T02:09:14;35.10;;;18.67;;
68866;SDS011;56451;44.804;20.476;2023-02-15T02:11:40;35.87;;;19.70;;
68866;SDS011;56451;44.804;20.476;2023-02-15T02:14:11;41.13;;;20.27;;
68866;SDS011;56451;44.804;20.476;2023-02-15T02:16:51;42.45;;;20.40;;
68866;SDS011;56451;44.804;20.476;2023-02-15T02:21:52;35.70;;;19.50;;
68866;SDS011;56451;44.804;20.476;2023-02-15T02:27:41;33.45;;;17.35;;
68866;SDS011;56451;44.804;20.476;2023-02-15T02:33:20;34.20;;;16.88;;
68866;SDS011;56451;44.804;20.476;2023-02-15T02:38:42;38.23;;;17.80;;
68866;SDS011;56451;44.804;20.476;2023-02-15T02:46:49;34.38;;;17.67;;
68866;SDS011;56451;44.804;20.476;2023-02-15T02:49:32;35.33;;;16.88;;
68866;SDS011;56451;44.804;20.476;2023-02-15T02:52:01;35.63;;;17.63;;
68866;SDS011;56451;44.804;20.476;2023-02-15T02:54:31;38.80;;;19.10;;
68866;SDS011;56451;44.804;20.476;2023-02-15T02:57:07;38.75;;;19.15;;
68866;SDS011;56451;44.804;20.476;2023-02-15T02:59:46;37.50;;;19.02;;
68866;SDS011;56451;44.804;20.476;2023-02-15T03:02:16;34.28;;;18.10;;
68866;SDS011;56451;44.804;20.476;2023-02-15T03:04:49;40.23;;;19.57;;
68866;SDS011;56451;44.804;20.476;2023-02-15T03:07:24;37.33;;;18.88;;
68866;SDS011;56451;44.804;20.476;2023-02-15T03:09:54;40.17;;;20.15;;
68866;SDS011;56451;44.804;20.476;2023-02-15T03:12:33;41.80;;;20.15;;
68866;SDS011;56451;44.804;20.476;2023-02-15T03:15:03;36.88;;;20.05;;
68866;SDS011;56451;44.804;20.476;2023-02-15T03:18:09;41.43;;;19.13;;
68866;SDS011;56451;44.804;20.476;2023-02-15T03:20:35;36.70;;;18.50;;
68866;SDS011;56451;44.804;20.476;2023-02-15T03:23:04;41.80;;;23.20;;
68866;SDS011;56451;44.804;20.476;2023-02-15T03:25:34;40.65;;;23.42;;
68866;SDS011;56451;44.804;20.476;2023-02-15T03:28:08;45.60;;;22.20;;
68866;SDS011;56451;44.804;20.476;2023-02-15T03:30:37;39.92;;;22.63;;
68866;SDS011;56451;44.804;20.476;2023-02-15T03:33:05;38.50;;;21.65;;
68866;SDS011;56451;44.804;20.476;2023-02-15T03:38:29;39.20;;;22.42;;
68866;SDS011;56451;44.804;20.476;2023-02-15T03:41:01;42.77;;;22.27;;
68866;SDS011;56451;44.804;20.476;2023-02-15T03:43:49;39.30;;;22.13;;
68866;SDS011;56451;44.804;20.476;2023-02-15T03:49:17;42.40;;;23.90;;
68866;SDS011;56451;44.804;20.476;2023-02-15T03:51:51;43.08;;;22.88;;
68866;SDS011;56451;44.804;20.476;2023-02-15T03:57:12;43.25;;;24.08;;
68866;SDS011;56451;44.804;20.476;2023-02-15T04:00:09;38.30;;;22.27;;
68866;SDS011;56451;44.804;20.476;2023-02-15T04:05:32;41.72;;;22.80;;
68866;SDS011;56451;44.804;20.476;2023-02-15T04:07:58;40.13;;;21.50;;
68866;SDS011;56451;44.804;20.476;2023-02-15T04:10:23;43.33;;;22.98;;
68866;SDS011;56451;44.804;20.476;2023-02-15T04:13:08;40.97;;;22.02;;
68866;SDS011;56451;44.804;20.476;2023-02-15T04:15:34;41.60;;;23.07;;
68866;SDS011;56451;44.804;20.476;2023-02-15T04:18:19;45.30;;;23.92;;
68866;SDS011;56451;44.804;20.476;2023-02-15T04:20:45;48.90;;;23.20;;
68866;SDS011;56451;44.804;20.476;2023-02-15T04:23:30;47.13;;;23.58;;
68866;SDS011;56451;44.804;20.476;2023-02-15T04:26:15;45.83;;;23.57;;
68866;SDS011;56451;44.804;20.476;2023-02-15T04:28:41;43.88;;;23.55;;
68866;SDS011;56451;44.804;20.476;2023-02-15T04:31:07;45.95;;;24.65;;
68866;SDS011;56451;44.804;20.476;2023-02-15T04:33:33;44.75;;;23.65;;
68866;SDS011;56451;44.804;20.476;2023-02-15T04:36:04;41.88;;;22.50;;
68866;SDS011;56451;44.804;20.476;2023-02-15T04:38:30;41.28;;;22.33;;
68866;SDS011;56451;44.804;20.476;2023-02-15T04:40:56;43.45;;;24.10;;
68866;SDS011;56451;44.804;20.476;2023-02-15T04:43:22;45.45;;;24.38;;
68866;SDS011;56451;44.804;20.476;2023-02-15T04:45:49;43.07;;;23.67;;
68866;SDS011;56451;44.804;20.476;2023-02-15T04:48:15;45.58;;;23.50;;
68866;SDS011;56451;44.804;20.476;2023-02-15T04:50:42;44.20;;;23.48;;
68866;SDS011;56451;44.804;20.476;2023-02-15T04:53:08;50.75;;;22.95;;
68866;SDS011;56451;44.804;20.476;2023-02-15T04:55:34;43.97;;;23.43;;
68866;SDS011;56451;44.804;20.476;2023-02-15T04:58:00;44.03;;;23.10;;
68866;SDS011;56451;44.804;20.476;2023-02-15T05:00:26;43.15;;;23.02;;
68866;SDS011;56451;44.804;20.476;2023-02-15T05:02:52;42.53;;;22.67;;
68866;SDS011;56451;44.804;20.476;2023-02-15T05:05:19;41.57;;;22.83;;
68866;SDS011;56451;44.804;20.476;2023-02-15T05:07:45;45.60;;;22.75;;
68866;SDS011;56451;44.804;20.476;2023-02-15T05:10:10;43.95;;;22.60;;
68866;SDS011;56451;44.804;20.476;2023-02-15T05:12:36;42.97;;;22.60;;
68866;SDS011;56451;44.804;20.476;2023-02-15T05:15:02;41.88;;;22.42;;
68866;SDS011;56451;44.804;20.476;2023-02-15T05:17:28;44.30;;;23.95;;
68866;SDS011;56451;44.804;20.476;2023-02-15T05:19:54;45.60;;;23.05;;
68866;SDS011;56451;44.804;20.476;2023-02-15T05:22:20;41.80;;;22.10;;
68866;SDS011;56451;44.804;20.476;2023-02-15T05:24:46;43.80;;;22.35;;
68866;SDS011;56451;44.804;20.476;2023-02-15T05:27:30;45.58;;;23.55;;
68866;SDS011;56451;44.804;20.476;2023-02-15T05:30:15;39.67;;;21.30;;
68866;SDS011;56451;44.804;20.476;2023-02-15T05:32:40;46.20;;;23.48;;
68866;SDS011;56451;44.804;20.476;2023-02-15T05:35:07;43.53;;;23.65;;
68866;SDS011;56451;44.804;20.476;2023-02-15T05:37:33;45.58;;;22.95;;
68866;SDS011;56451;44.804;20.476;2023-02-15T05:39:59;41.47;;;22.53;;
68866;SDS011;56451;44.804;20.476;2023-02-15T05:42:25;45.00;;;22.52;;
68866;SDS011;56451;44.804;20.476;2023-02-15T05:44:51;45.60;;;23.92;;
68866;SDS011;56451;44.804;20.476;2023-02-15T05:47:17;38.63;;;21.50;;
68866;SDS011;56451;44.804;20.476;2023-02-15T05:49:43;45.73;;;22.43;;
68866;SDS011;56451;44.804;20.476;2023-02-15T05:52:08;42.17;;;22.38;;
68866;SDS011;56451;44.804;20.476;2023-02-15T05:54:34;45.40;;;21.58;;
68866;SDS011;56451;44.804;20.476;2023-02-15T05:57:00;41.95;;;21.55;;
68866;SDS011;56451;44.804;20.476;2023-02-15T05:59:26;40.75;;;20.92;;
68866;SDS011;56451;44.804;20.476;2023-02-15T06:01:52;40.23;;;21.73;;
68866;SDS011;56451;44.804;20.476;2023-02-15T06:04:18;46.40;;;22.58;;
68866;SDS011;56451;44.804;20.476;2023-02-15T06:06:44;43.65;;;23.17;;
68866;SDS011;56451;44.804;20.476;2023-02-15T06:09:11;44.47;;;22.90;;
68866;SDS011;56451;44.804;20.476;2023-02-15T06:11:38;47.08;;;22.45;;
68866;SDS011;56451;44.804;20.476;2023-02-15T06:14:03;45.00;;;21.90;;
68866;SDS011;56451;44.804;20.476;2023-02-15T06:16:29;43.65;;;23.27;;
68866;SDS011;56451;44.804;20.476;2023-02-15T06:18:56;44.67;;;22.58;;
68866;SDS011;56451;44.804;20.476;2023-02-15T06:21:21;45.88;;;22.35;;
68866;SDS011;56451;44.804;20.476;2023-02-15T06:23:48;46.05;;;23.45;;
68866;SDS011;56451;44.804;20.476;2023-02-15T06:26:13;48.77;;;22.33;;
68866;SDS011;56451;44.804;20.476;2023-02-15T06:28:39;47.35;;;23.50;;
68866;SDS011;56451;44.804;20.476;2023-02-15T06:31:06;43.15;;;22.95;;
68866;SDS011;56451;44.804;20.476;2023-02-15T06:33:32;44.17;;;23.27;;
68866;SDS011;56451;44.804;20.476;2023-02-15T06:36:01;44.92;;;22.77;;
68866;SDS011;56451;44.804;20.476;2023-02-15T06:38:29;45.00;;;23.42;;
68866;SDS011;56451;44.804;20.476;2023-02-15T06:40:55;42.92;;;22.45;;
68866;SDS011;56451;44.804;20.476;2023-02-15T06:43:21;45.43;;;23.43;;
68866;SDS011;56451;44.804;20.476;2023-02-15T06:45:46;46.08;;;23.70;;
68866;SDS011;56451;44.804;20.476;2023-02-15T06:48:13;51.80;;;24.60;;
68866;SDS011;56451;44.804;20.476;2023-02-15T06:50:39;47.13;;;22.92;;
68866;SDS011;56451;44.804;20.476;2023-02-15T06:53:05;44.80;;;22.77;;
68866;SDS011;56451;44.804;20.476;2023-02-15T06:55:31;51.78;;;24.73;;
68866;SDS011;56451;44.804;20.476;2023-02-15T06:57:56;48.78;;;24.10;;
68866;SDS011;56451;44.804;20.476;2023-02-15T07:00:22;43.60;;;23.13;;
68866;SDS011;56451;44.804;20.476;2023-02-15T07:02:55;43.10;;;21.90;;
68866;SDS011;56451;44.804;20.476;2023-02-15T07:05:26;41.65;;;21.17;;
68866;SDS011;56451;44.804;20.476;2023-02-15T07:07:59;40.25;;;21.73;;
68866;SDS011;56451;44.804;20.476;2023-02-15T07:10:26;41.33;;;20.50;;
68866;SDS011;56451;44.804;20.476;2023-02-15T07:12:52;44.22;;;21.92;;
68866;SDS011;56451;44.804;20.476;2023-02-15T07:15:18;41.47;;;21.33;;
68866;SDS011;56451;44.804;20.476;2023-02-15T07:17:48;36.15;;;19.48;;
68866;SDS011;56451;44.804;20.476;2023-02-15T07:20:21;37.78;;;20.55;;
68866;SDS011;56451;44.804;20.476;2023-02-15T07:22:48;37.83;;;20.02;;
68866;SDS011;56451;44.804;20.476;2023-02-15T07:25:14;39.08;;;20.38;;
68866;SDS011;56451;44.804;20.476;2023-02-15T07:27:41;39.50;;;20.67;;
68866;SDS011;56451;44.804;20.476;2023-02-15T07:30:10;39.35;;;20.83;;
68866;SDS011;56451;44.804;20.476;2023-02-15T07:32:37;39.78;;;20.58;;
68866;SDS011;56451;44.804;20.476;2023-02-15T07:35:23;41.90;;;20.60;;
68866;SDS011;56451;44.804;20.476;2023-02-15T07:37:50;41.90;;;20.77;;
68866;SDS011;56451;44.804;20.476;2023-02-15T07:40:16;35.93;;;19.17;;
68866;SDS011;56451;44.804;20.476;2023-02-15T07:42:42;40.20;;;20.13;;
68866;SDS011;56451;44.804;20.476;2023-02-15T07:45:08;41.47;;;21.20;;
68866;SDS011;56451;44.804;20.476;2023-02-15T07:47:34;40.40;;;21.02;;
68866;SDS011;56451;44.804;20.476;2023-02-15T07:50:00;38.40;;;20.25;;
68866;SDS011;56451;44.804;20.476;2023-02-15T07:52:26;38.80;;;20.40;;
68866;SDS011;56451;44.804;20.476;2023-02-15T07:54:52;45.70;;;20.63;;
68866;SDS011;56451;44.804;20.476;2023-02-15T07:57:18;42.93;;;21.33;;
68866;SDS011;56451;44.804;20.476;2023-02-15T07:59:44;45.90;;;22.00;;
68866;SDS011;56451;44.804;20.476;2023-02-15T08:02:10;40.47;;;20.55;;
68866;SDS011;56451;44.804;20.476;2023-02-15T08:04:36;40.03;;;20.37;;
68866;SDS011;56451;44.804;20.476;2023-02-15T08:07:02;43.58;;;21.48;;
68866;SDS011;56451;44.804;20.476;2023-02-15T08:09:29;46.65;;;21.45;;
68866;SDS011;56451;44.804;20.476;2023-02-15T08:11:55;38.50;;;21.17;;
68866;SDS011;56451;44.804;20.476;2023-02-15T08:14:21;42.33;;;20.75;;
68866;SDS011;56451;44.804;20.476;2023-02-15T08:16:53;38.05;;;21.65;;
68866;SDS011;56451;44.804;20.476;2023-02-15T08:19:22;37.88;;;20.85;;
68866;SDS011;56451;44.804;20.476;2023-02-15T08:21:55;39.25;;;21.27;;
68866;SDS011;56451;44.804;20.476;2023-02-15T08:24:23;41.45;;;20.23;;
68866;SDS011;56451;44.804;20.476;2023-02-15T08:26:52;40.28;;;21.50;;
68866;SDS011;56451;44.804;20.476;2023-02-15T08:29:20;38.40;;;20.83;;
68866;SDS011;56451;44.804;20.476;2023-02-15T08:31:52;37.15;;;20.27;;
68866;SDS011;56451;44.804;20.476;2023-02-15T08:34:20;35.90;;;20.50;;
68866;SDS011;56451;44.804;20.476;2023-02-15T08:36:46;38.97;;;20.77;;
68866;SDS011;56451;44.804;20.476;2023-02-15T08:39:13;44.90;;;23.02;;
68866;SDS011;56451;44.804;20.476;2023-02-15T08:41:44;40.85;;;22.75;;
68866;SDS011;56451;44.804;20.476;2023-02-15T08:44:11;45.22;;;23.30;;
68866;SDS011;56451;44.804;20.476;2023-02-15T08:46:38;36.42;;;22.38;;
68866;SDS011;56451;44.804;20.476;2023-02-15T08:49:05;38.13;;;21.42;;
68866;SDS011;56451;44.804;20.476;2023-02-15T08:51:32;37.40;;;21.40;;
68866;SDS011;56451;44.804;20.476;2023-02-15T08:54:01;35.20;;;19.70;;
68866;SDS011;56451;44.804;20.476;2023-02-15T08:56:29;36.20;;;19.55;;
68866;SDS011;56451;44.804;20.476;2023-02-15T08:58:58;34.35;;;18.85;;
68866;SDS011;56451;44.804;20.476;2023-02-15T09:01:24;36.67;;;19.42;;
68866;SDS011;56451;44.804;20.476;2023-02-15T09:03:54;34.92;;;18.85;;
68866;SDS011;56451;44.804;20.476;2023-02-15T09:06:27;33.28;;;18.02;;
68866;SDS011;56451;44.804;20.476;2023-02-15T09:08:54;34.37;;;17.80;;
68866;SDS011;56451;44.804;20.476;2023-02-15T09:11:21;33.65;;;18.13;;
68866;SDS011;56451;44.804;20.476;2023-02-15T09:13:53;38.20;;;19.25;;
68866;SDS011;56451;44.804;20.476;2023-02-15T09:16:19;39.05;;;19.92;;
68866;SDS011;56451;44.804;20.476;2023-02-15T09:18:47;36.60;;;20.17;;
68866;SDS011;56451;44.804;20.476;2023-02-15T09:21:14;35.37;;;18.77;;
68866;SDS011;56451;44.804;20.476;2023-02-15T09:23:44;35.72;;;19.80;;
68866;SDS011;56451;44.804;20.476;2023-02-15T09:26:13;38.17;;;20.23;;
68866;SDS011;56451;44.804;20.476;2023-02-15T09:28:44;40.13;;;20.00;;
68866;SDS011;56451;44.804;20.476;2023-02-15T09:31:14;34.50;;;19.35;;
68866;SDS011;56451;44.804;20.476;2023-02-15T09:33:42;38.00;;;20.43;;
68866;SDS011;56451;44.804;20.476;2023-02-15T09:36:15;37.50;;;19.15;;
68866;SDS011;56451;44.804;20.476;2023-02-15T09:38:44;40.05;;;19.60;;
68866;SDS011;56451;44.804;20.476;2023-02-15T09:43:59;37.75;;;18.02;;
68866;SDS011;56451;44.804;20.476;2023-02-15T09:46:32;38.00;;;18.93;;
68866;SDS011;56451;44.804;20.476;2023-02-15T09:49:04;35.00;;;16.88;;
68866;SDS011;56451;44.804;20.476;2023-02-15T09:51:54;33.97;;;16.58;;
68866;SDS011;56451;44.804;20.476;2023-02-15T09:54:50;35.20;;;17.20;;
68866;SDS011;56451;44.804;20.476;2023-02-15T10:17:56;26.33;;;14.02;;
68866;SDS011;56451;44.804;20.476;2023-02-15T10:26:43;26.90;;;13.68;;
68866;SDS011;56451;44.804;20.476;2023-02-15T10:32:09;24.08;;;13.20;;
68866;SDS011;56451;44.804;20.476;2023-02-15T10:38:01;28.13;;;14.30;;
68866;SDS011;56451;44.804;20.476;2023-02-15T10:48:58;26.85;;;13.88;;
68866;SDS011;56451;44.804;20.476;2023-02-15T10:54:57;29.25;;;13.35;;
68866;SDS011;56451;44.804;20.476;2023-02-15T11:06:50;26.00;;;14.10;;
68866;SDS011;56451;44.804;20.476;2023-02-15T11:09:20;24.65;;;12.95;;
68866;SDS011;56451;44.804;20.476;2023-02-15T11:11:50;25.40;;;13.67;;
68866;SDS011;56451;44.804;20.476;2023-02-15T11:14:27;25.10;;;13.70;;
68866;SDS011;56451;44.804;20.476;2023-02-15T11:17:10;26.10;;;13.50;;
68866;SDS011;56451;44.804;20.476;2023-02-15T11:19:41;26.73;;;13.63;;
68866;SDS011;56451;44.804;20.476;2023-02-15T11:22:18;28.45;;;14.55;;
68866;SDS011;56451;44.804;20.476;2023-02-15T11:24:45;27.90;;;14.13;;
68866;SDS011;56451;44.804;20.476;2023-02-15T11:29:41;27.83;;;14.45;;
68866;SDS011;56451;44.804;20.476;2023-02-15T11:32:19;25.85;;;13.43;;
68866;SDS011;56451;44.804;20.476;2023-02-15T11:34:59;24.92;;;13.82;;
68866;SDS011;56451;44.804;20.476;2023-02-15T11:37:51;26.80;;;14.02;;
68866;SDS011;56451;44.804;20.476;2023-02-15T11:40:41;23.25;;;13.45;;
68866;SDS011;56451;44.804;20.476;2023-02-15T11:45:45;23.90;;;13.10;;
68866;SDS011;56451;44.804;20.476;2023-02-15T11:48:13;25.20;;;14.20;;
68866;SDS011;56451;44.804;20.476;2023-02-15T11:50:41;26.45;;;12.90;;
68866;SDS011;56451;44.804;20.476;2023-02-15T11:53:15;32.00;;;15.00;;
68866;SDS011;56451;44.804;20.476;2023-02-15T11:55:47;26.92;;;14.80;;
68866;SDS011;56451;44.804;20.476;2023-02-15T12:00:50;24.05;;;13.45;;
68866;SDS011;56451;44.804;20.476;2023-02-15T12:03:24;25.38;;;14.73;;
68866;SDS011;56451;44.804;20.476;2023-02-15T12:06:00;28.73;;;14.57;;
68866;SDS011;56451;44.804;20.476;2023-02-15T12:08:39;25.83;;;14.35;;
68866;SDS011;56451;44.804;20.476;2023-02-15T12:11:10;26.52;;;14.55;;
68866;SDS011;56451;44.804;20.476;2023-02-15T12:16:23;27.23;;;15.63;;
68866;SDS011;56451;44.804;20.476;2023-02-15T12:18:49;29.42;;;16.02;;
68866;SDS011;56451;44.804;20.476;2023-02-15T12:23:54;27.20;;;14.75;;
68866;SDS011;56451;44.804;20.476;2023-02-15T12:26:30;29.35;;;15.60;;
68866;SDS011;56451;44.804;20.476;2023-02-15T12:28:58;26.27;;;14.75;;
68866;SDS011;56451;44.804;20.476;2023-02-15T12:33:57;27.25;;;14.80;;
68866;SDS011;56451;44.804;20.476;2023-02-15T12:36:30;27.75;;;14.98;;
68866;SDS011;56451;44.804;20.476;2023-02-15T12:41:46;25.52;;;14.38;;
68866;SDS011;56451;44.804;20.476;2023-02-15T12:44:22;26.13;;;14.18;;
68866;SDS011;56451;44.804;20.476;2023-02-15T12:49:23;26.42;;;14.00;;
68866;SDS011;56451;44.804;20.476;2023-02-15T12:51:53;27.55;;;14.52;;
68866;SDS011;56451;44.804;20.476;2023-02-15T12:56:50;27.63;;;15.70;;
68866;SDS011;56451;44.804;20.476;2023-02-15T12:59:17;24.08;;;15.25;;
68866;SDS011;56451;44.804;20.476;2023-02-15T13:01:47;29.23;;;15.20;;
68866;SDS011;56451;44.804;20.476;2023-02-15T13:04:26;27.25;;;14.43;;
68866;SDS011;56451;44.804;20.476;2023-02-15T13:06:58;28.20;;;14.68;;
68866;SDS011;56451;44.804;20.476;2023-02-15T13:12:42;25.23;;;14.45;;
68866;SDS011;56451;44.804;20.476;2023-02-15T13:14:48;23.35;;;14.35;;
68866;SDS011;56451;44.804;20.476;2023-02-15T13:17:27;28.33;;;14.65;;
68866;SDS011;56451;44.804;20.476;2023-02-15T13:20:06;25.80;;;14.70;;
68866;SDS011;56451;44.804;20.476;2023-02-15T13:22:44;27.55;;;15.00;;
68866;SDS011;56451;44.804;20.476;2023-02-15T13:25:13;24.35;;;14.00;;
68866;SDS011;56451;44.804;20.476;2023-02-15T13:27:44;24.88;;;14.65;;
68866;SDS011;56451;44.804;20.476;2023-02-15T13:32:58;26.55;;;15.27;;
68866;SDS011;56451;44.804;20.476;2023-02-15T13:38:37;27.10;;;15.00;;
68866;SDS011;56451;44.804;20.476;2023-02-15T13:41:25;27.30;;;14.68;;
68866;SDS011;56451;44.804;20.476;2023-02-15T13:44:12;31.55;;;16.98;;
68866;SDS011;56451;44.804;20.476;2023-02-15T13:52:22;31.60;;;16.48;;
68866;SDS011;56451;44.804;20.476;2023-02-15T14:05:51;32.95;;;17.63;;
68866;SDS011;56451;44.804;20.476;2023-02-15T14:11:13;35.58;;;18.10;;
68866;SDS011;56451;44.804;20.476;2023-02-15T14:19:48;28.20;;;16.17;;
68866;SDS011;56451;44.804;20.476;2023-02-15T14:28:20;34.45;;;17.20;;
68866;SDS011;56451;44.804;20.476;2023-02-15T14:30:55;29.67;;;16.75;;
68866;SDS011;56451;44.804;20.476;2023-02-15T14:33:33;30.33;;;16.23;;
68866;SDS011;56451;44.804;20.476;2023-02-15T14:36:00;33.42;;;16.15;;
68866;SDS011;56451;44.804;20.476;2023-02-15T14:49:25;30.73;;;17.40;;
68866;SDS011;56451;44.804;20.476;2023-02-15T14:51:56;30.67;;;16.95;;
68866;SDS011;56451;44.804;20.476;2023-02-15T15:02:18;31.92;;;16.90;;
68866;SDS011;56451;44.804;20.476;2023-02-15T15:07:19;36.90;;;19.25;;
68866;SDS011;56451;44.804;20.476;2023-02-15T15:09:58;31.80;;;17.90;;
68866;SDS011;56451;44.804;20.476;2023-02-15T15:15:02;34.13;;;18.27;;
68866;SDS011;56451;44.804;20.476;2023-02-15T15:22:25;34.15;;;17.67;;
68866;SDS011;56451;44.804;20.476;2023-02-15T15:24:58;31.75;;;17.15;;
68866;SDS011;56451;44.804;20.476;2023-02-15T15:46:20;35.42;;;18.17;;
68866;SDS011;56451;44.804;20.476;2023-02-15T15:49:02;33.35;;;17.70;;
68866;SDS011;56451;44.804;20.476;2023-02-15T15:51:41;29.63;;;16.42;;
68866;SDS011;56451;44.804;20.476;2023-02-15T15:54:12;30.45;;;15.60;;
68866;SDS011;56451;44.804;20.476;2023-02-15T15:56:43;32.47;;;16.88;;
68866;SDS011;56451;44.804;20.476;2023-02-15T15:59:19;35.42;;;16.77;;
68866;SDS011;56451;44.804;20.476;2023-02-15T16:01:48;37.05;;;17.98;;
68866;SDS011;56451;44.804;20.476;2023-02-15T16:04:28;36.22;;;18.65;;
68866;SDS011;56451;44.804;20.476;2023-02-15T16:06:56;38.67;;;18.65;;
68866;SDS011;56451;44.804;20.476;2023-02-15T16:09:24;35.42;;;18.63;;
68866;SDS011;56451;44.804;20.476;2023-02-15T16:11:56;37.38;;;18.23;;
68866;SDS011;56451;44.804;20.476;2023-02-15T16:14:34;35.35;;;17.70;;
68866;SDS011;56451;44.804;20.476;2023-02-15T16:17:02;37.08;;;18.42;;
68866;SDS011;56451;44.804;20.476;2023-02-15T16:19:38;35.92;;;19.00;;
68866;SDS011;56451;44.804;20.476;2023-02-15T16:22:09;32.50;;;17.85;;
68866;SDS011;56451;44.804;20.476;2023-02-15T16:27:44;36.25;;;18.70;;
68866;SDS011;56451;44.804;20.476;2023-02-15T16:33:14;34.92;;;17.58;;
68866;SDS011;56451;44.804;20.476;2023-02-15T16:35:58;36.97;;;19.95;;
68866;SDS011;56451;44.804;20.476;2023-02-15T16:41:21;39.38;;;19.02;;
68866;SDS011;56451;44.804;20.476;2023-02-15T16:43:50;37.33;;;18.25;;
68866;SDS011;56451;44.804;20.476;2023-02-15T16:46:26;33.72;;;17.50;;
68866;SDS011;56451;44.804;20.476;2023-02-15T16:48:56;33.97;;;18.67;;
68866;SDS011;56451;44.804;20.476;2023-02-15T16:51:28;36.67;;;18.83;;
68866;SDS011;56451;44.804;20.476;2023-02-15T16:53:57;32.90;;;17.88;;
68866;SDS011;56451;44.804;20.476;2023-02-15T16:56:30;33.92;;;17.83;;
68866;SDS011;56451;44.804;20.476;2023-02-15T16:58:56;34.80;;;19.08;;
68866;SDS011;56451;44.804;20.476;2023-02-15T17:01:24;32.95;;;17.27;;
68866;SDS011;56451;44.804;20.476;2023-02-15T17:04:10;32.47;;;18.13;;
68866;SDS011;56451;44.804;20.476;2023-02-15T17:06:38;32.50;;;18.25;;
68866;SDS011;56451;44.804;20.476;2023-02-15T17:09:05;35.80;;;19.30;;
68866;SDS011;56451;44.804;20.476;2023-02-15T17:11:42;40.97;;;21.17;;
68866;SDS011;56451;44.804;20.476;2023-02-15T17:19:18;49.25;;;24.13;;
68866;SDS011;56451;44.804;20.476;2023-02-15T17:21:49;54.78;;;27.60;;
68866;SDS011;56451;44.804;20.476;2023-02-15T17:24:39;53.53;;;27.23;;
68866;SDS011;56451;44.804;20.476;2023-02-15T17:27:49;54.53;;;26.95;;
68866;SDS011;56451;44.804;20.476;2023-02-15T17:29:57;66.82;;;34.75;;
68866;SDS011;56451;44.804;20.476;2023-02-15T17:32:27;58.50;;;30.20;;
68866;SDS011;56451;44.804;20.476;2023-02-15T17:37:46;52.17;;;26.50;;
68866;SDS011;56451;44.804;20.476;2023-02-15T17:40:24;54.83;;;29.67;;
68866;SDS011;56451;44.804;20.476;2023-02-15T17:42:52;47.00;;;26.52;;
68866;SDS011;56451;44.804;20.476;2023-02-15T17:45:18;49.83;;;25.98;;
68866;SDS011;56451;44.804;20.476;2023-02-15T17:47:46;47.22;;;24.50;;
68866;SDS011;56451;44.804;20.476;2023-02-15T17:50:23;45.47;;;25.73;;
68866;SDS011;56451;44.804;20.476;2023-02-15T17:52:51;49.13;;;23.83;;
68866;SDS011;56451;44.804;20.476;2023-02-15T17:55:20;48.33;;;24.98;;
68866;SDS011;56451;44.804;20.476;2023-02-15T17:58:14;48.88;;;25.70;;
68866;SDS011;56451;44.804;20.476;2023-02-15T18:00:45;52.90;;;27.23;;
68866;SDS011;56451;44.804;20.476;2023-02-15T18:03:52;52.93;;;26.87;;
68866;SDS011;56451;44.804;20.476;2023-02-15T18:06:37;50.60;;;25.55;;
68866;SDS011;56451;44.804;20.476;2023-02-15T18:09:23;55.25;;;28.73;;